Time;durP1;ratioP1;P1;durP2;ratioP2;P2;SDS_P1;SDS_P2;PMS_P1;PMS_P2;Temp;Humidity;BMP_temperature;BMP_pressure;BME280_temperature;BME280_humidity;BME280_pressure;Samples;Min_cycle;Max_cycle;Signal;HPM_P1;HPM_P2
2021/05/09 00:02:20;;;;;;;2.77;2.13;;;12.90;79.70;;;;;;5038157;28;20048;-90
2021/05/09 00:04:45;;;;;;;4.65;3.42;;;12.90;79.80;;;;;;5038381;28;20029;-90
2021/05/09 00:07:12;;;;;;;4.53;2.40;;;12.90;79.70;;;;;;5021650;28;20040;-90
2021/05/09 00:09:38;;;;;;;4.40;2.47;;;12.80;79.90;;;;;;5056222;28;20455;-91
2021/05/09 00:12:05;;;;;;;5.50;2.27;;;12.80;80.10;;;;;;5038623;28;20024;-90
2021/05/09 00:14:30;;;;;;;3.77;2.63;;;12.80;80.10;;;;;;5055406;28;20041;-92
2021/05/09 00:16:56;;;;;;;5.00;2.70;;;12.80;80.30;;;;;;5055923;28;20060;-92
2021/05/09 00:19:22;;;;;;;6.13;3.13;;;12.80;80.20;;;;;;5036951;28;20117;-91
2021/05/09 00:21:47;;;;;;;6.90;4.10;;;12.80;80.30;;;;;;5037525;28;20123;-92
2021/05/09 00:24:13;;;;;;;4.53;2.67;;;12.70;80.50;;;;;;5036918;28;20045;-90
2021/05/09 00:26:39;;;;;;;7.77;3.33;;;12.70;80.60;;;;;;5038506;28;20033;-92
2021/05/09 00:29:04;;;;;;;7.27;3.47;;;12.70;80.80;;;;;;5021149;28;20382;-90
2021/05/09 00:31:30;;;;;;;6.83;3.30;;;12.70;80.70;;;;;;5021355;28;20078;-90
2021/05/09 00:33:56;;;;;;;5.90;3.27;;;12.70;80.80;;;;;;5038361;28;20028;-93
2021/05/09 00:36:21;;;;;;;5.03;3.57;;;12.70;80.90;;;;;;5021069;28;20037;-92
2021/05/09 00:38:47;;;;;;;6.40;3.60;;;12.70;80.90;;;;;;5004554;28;20033;-90
2021/05/09 00:41:12;;;;;;;6.27;3.27;;;12.70;81.10;;;;;;5003952;28;20071;-90
2021/05/09 00:43:39;;;;;;;6.77;3.10;;;12.70;81.20;;;;;;5020490;28;20079;-91
2021/05/09 00:46:04;;;;;;;8.07;4.70;;;12.70;81.00;;;;;;5020700;28;20060;-90
2021/05/09 00:48:30;;;;;;;9.97;4.03;;;12.70;81.00;;;;;;5016226;28;20061;-91
2021/05/09 00:50:55;;;;;;;6.47;3.77;;;12.70;81.10;;;;;;5055061;28;20067;-92
2021/05/09 00:53:23;;;;;;;7.13;4.03;;;12.70;81.50;;;;;;5037207;28;20116;-90
2021/05/09 00:55:50;;;;;;;6.37;4.00;;;12.70;81.10;;;;;;5055979;28;20025;-90
2021/05/09 00:58:17;;;;;;;7.17;4.20;;;12.70;81.00;;;;;;5015868;28;20049;-89
2021/05/09 01:00:45;;;;;;;5.90;4.73;;;12.70;81.10;;;;;;5034953;28;20034;-91
2021/05/09 01:03:12;;;;;;;5.83;4.10;;;12.70;81.10;;;;;;5019006;28;20044;-91
2021/05/09 01:05:38;;;;;;;7.67;4.00;;;12.60;81.20;;;;;;5033757;28;20041;-91
2021/05/09 01:08:05;;;;;;;7.27;4.63;;;12.60;81.20;;;;;;5034745;28;20025;-90
2021/05/09 01:10:33;;;;;;;7.03;4.53;;;12.60;81.40;;;;;;5034165;28;20029;-91
2021/05/09 01:12:59;;;;;;;5.50;4.77;;;12.60;81.30;;;;;;5017901;28;20026;-93
2021/05/09 01:15:27;;;;;;;9.47;4.33;;;12.50;81.40;;;;;;5020655;28;20033;-91
2021/05/09 01:17:52;;;;;;;7.13;4.40;;;12.50;81.60;;;;;;5017942;28;20101;-92
2021/05/09 01:20:18;;;;;;;7.60;4.63;;;12.60;81.70;;;;;;5001158;28;20396;-90
2021/05/09 01:22:44;;;;;;;8.57;5.10;;;12.50;81.70;;;;;;5033690;28;20072;-92
2021/05/09 01:25:11;;;;;;;9.50;4.80;;;12.60;81.80;;;;;;5034974;28;20140;-87
2021/05/09 01:27:37;;;;;;;8.20;4.53;;;12.50;81.80;;;;;;5033836;28;20492;-91
2021/05/09 01:30:08;;;;;;;6.13;4.27;;;12.60;81.90;;;;;;5033052;28;20033;-92
2021/05/09 01:32:33;;;;;;;6.57;4.20;;;12.50;81.90;;;;;;5001155;28;20029;-92
2021/05/09 01:34:59;;;;;;;7.07;4.70;;;12.60;82.00;;;;;;5000179;28;20101;-92
2021/05/09 01:37:26;;;;;;;7.40;4.57;;;12.50;81.80;;;;;;5034179;28;20025;-90
2021/05/09 01:39:52;;;;;;;6.27;4.10;;;12.50;81.90;;;;;;5034170;28;20111;-93
2021/05/09 01:42:18;;;;;;;9.03;5.67;;;12.50;82.00;;;;;;5034417;28;20489;-92
2021/05/09 01:44:58;;;;;;;8.87;5.53;;;12.60;82.10;;;;;;5019203;28;20049;-91
2021/05/09 01:47:24;;;;;;;10.23;5.80;;;12.60;81.90;;;;;;5046649;28;20037;-89
2021/05/09 01:49:49;;;;;;;7.93;5.30;;;12.60;81.90;;;;;;5044455;28;20128;-93
2021/05/09 01:52:16;;;;;;;7.43;5.80;;;12.60;81.90;;;;;;5023185;28;20056;-93
2021/05/09 01:54:43;;;;;;;10.37;6.00;;;12.60;82.00;;;;;;5039056;28;20523;-93
2021/05/09 01:57:09;;;;;;;7.30;5.80;;;12.60;82.00;;;;;;5023544;28;20025;-90
2021/05/09 01:59:34;;;;;;;10.23;6.20;;;12.60;81.90;;;;;;5024640;28;20099;-91
2021/05/09 02:02:00;;;;;;;8.97;5.70;;;12.60;81.90;;;;;;5029198;28;20026;-89
2021/05/09 02:04:26;;;;;;;7.43;5.63;;;12.60;81.80;;;;;;5030699;28;20036;-90
2021/05/09 02:06:52;;;;;;;9.73;5.23;;;12.60;81.90;;;;;;5032064;28;20045;-91
2021/05/09 02:09:17;;;;;;;7.60;4.87;;;12.70;81.90;;;;;;5052708;28;20021;-91
2021/05/09 02:11:43;;;;;;;6.17;4.53;;;12.70;81.80;;;;;;5031411;28;20060;-89
2021/05/09 02:14:09;;;;;;;7.83;4.50;;;12.70;81.80;;;;;;5049373;28;20097;-91
2021/05/09 02:16:35;;;;;;;6.23;4.43;;;12.70;81.80;;;;;;5044469;28;20033;-91
2021/05/09 02:19:01;;;;;;;7.30;4.13;;;12.60;81.80;;;;;;5048071;28;20383;-91
2021/05/09 02:21:27;;;;;;;6.60;3.87;;;12.60;81.80;;;;;;5044527;28;20055;-91
2021/05/09 02:23:52;;;;;;;6.27;4.00;;;12.60;81.90;;;;;;5049463;28;20049;-92
2021/05/09 02:26:19;;;;;;;7.20;3.80;;;12.60;82.00;;;;;;5044334;28;20091;-92
2021/05/09 02:28:44;;;;;;;5.43;3.13;;;12.50;82.10;;;;;;5016954;28;20394;-90
2021/05/09 02:31:10;;;;;;;6.27;3.90;;;12.50;82.30;;;;;;5017100;28;20124;-92
2021/05/09 02:33:36;;;;;;;4.87;3.20;;;12.50;82.30;;;;;;5018292;28;20029;-92
2021/05/09 02:36:02;;;;;;;9.70;3.73;;;12.40;82.30;;;;;;5033741;28;20499;-91
2021/05/09 02:38:28;;;;;;;7.17;3.57;;;12.50;82.60;;;;;;5034393;28;20034;-90
2021/05/09 02:40:53;;;;;;;5.77;3.60;;;12.40;82.60;;;;;;5019578;28;20029;-91
2021/05/09 02:43:19;;;;;;;5.40;3.97;;;12.40;82.50;;;;;;5031576;28;20030;-91
2021/05/09 02:45:45;;;;;;;5.80;4.03;;;12.30;82.70;;;;;;5033263;28;20068;-91
2021/05/09 02:48:11;;;;;;;7.27;4.23;;;12.30;82.70;;;;;;5038144;28;20052;-92
2021/05/09 02:50:37;;;;;;;5.50;3.63;;;12.30;82.80;;;;;;5018785;28;20056;-91
2021/05/09 02:53:04;;;;;;;6.60;3.77;;;12.30;83.00;;;;;;5026170;28;20056;-89
2021/05/09 02:55:29;;;;;;;6.87;3.97;;;12.30;83.10;;;;;;5049897;28;20033;-90
2021/05/09 02:57:55;;;;;;;5.47;4.03;;;12.30;83.10;;;;;;5049900;28;20030;-91
2021/05/09 03:00:21;;;;;;;7.03;3.97;;;12.30;83.30;;;;;;5055467;28;20056;-92
2021/05/09 03:02:47;;;;;;;4.43;3.53;;;12.30;83.40;;;;;;5021211;28;20022;-92
2021/05/09 03:05:13;;;;;;;5.27;3.20;;;12.20;83.30;;;;;;5036061;28;20095;-92
2021/05/09 03:07:39;;;;;;;5.30;3.23;;;12.20;83.30;;;;;;5005948;28;20041;-91
2021/05/09 03:10:06;;;;;;;6.17;3.80;;;12.20;83.40;;;;;;4983537;28;20029;-89
2021/05/09 03:12:31;;;;;;;6.17;3.67;;;12.20;83.60;;;;;;5014110;28;20093;-90
2021/05/09 03:14:57;;;;;;;5.40;3.40;;;12.20;83.70;;;;;;5053157;28;20102;-91
2021/05/09 03:17:23;;;;;;;4.37;3.40;;;12.20;83.70;;;;;;5019578;28;20128;-93
2021/05/09 03:19:49;;;;;;;6.60;3.17;;;12.20;83.60;;;;;;5020268;28;20035;-91
2021/05/09 03:22:14;;;;;;;6.63;3.20;;;12.20;83.70;;;;;;5022552;28;20033;-92
2021/05/09 03:24:40;;;;;;;6.13;3.50;;;12.20;83.80;;;;;;5019226;28;20046;-90
2021/05/09 03:27:06;;;;;;;6.87;2.77;;;12.10;83.60;;;;;;5028676;28;20033;-92
2021/05/09 03:29:31;;;;;;;5.23;3.40;;;12.10;83.60;;;;;;5029359;28;20852;-91
2021/05/09 03:31:57;;;;;;;6.53;3.33;;;12.00;83.90;;;;;;5011910;28;20017;-89
2021/05/09 03:34:23;;;;;;;5.30;3.50;;;12.00;84.30;;;;;;4994076;28;20034;-90
2021/05/09 03:36:48;;;;;;;6.73;3.27;;;12.00;84.30;;;;;;5024612;28;20453;-89
2021/05/09 03:39:14;;;;;;;4.57;2.93;;;12.00;84.30;;;;;;5047739;28;20044;-90
2021/05/09 03:41:40;;;;;;;5.53;2.70;;;12.00;84.30;;;;;;5039765;28;20067;-91
2021/05/09 03:44:06;;;;;;;5.73;2.97;;;12.00;84.10;;;;;;5019646;28;20124;-92
2021/05/09 03:46:31;;;;;;;6.07;2.80;;;12.00;84.10;;;;;;5035426;28;20049;-90
2021/05/09 03:48:57;;;;;;;5.83;2.93;;;12.00;84.10;;;;;;5053161;28;20025;-90
2021/05/09 03:51:24;;;;;;;5.57;2.73;;;12.00;84.10;;;;;;5019503;28;20090;-90
2021/05/09 03:53:49;;;;;;;3.60;2.03;;;12.10;84.10;;;;;;5035338;28;20033;-90
2021/05/09 03:56:15;;;;;;;4.37;2.50;;;12.10;84.00;;;;;;5019567;28;20037;-92
2021/05/09 03:58:41;;;;;;;6.70;2.70;;;12.10;84.00;;;;;;5021347;28;20072;-88
2021/05/09 04:01:06;;;;;;;4.30;2.90;;;12.10;84.00;;;;;;5022887;28;20078;-92
2021/05/09 04:03:32;;;;;;;4.20;2.37;;;12.20;84.00;;;;;;5006302;28;20029;-89
2021/05/09 04:05:58;;;;;;;4.20;2.27;;;12.20;83.80;;;;;;5021770;28;20055;-89
2021/05/09 04:08:26;;;;;;;6.33;2.10;;;12.30;83.60;;;;;;5022497;28;20044;-91
2021/05/09 04:10:53;;;;;;;4.73;2.10;;;12.40;83.40;;;;;;5037901;28;20090;-90
2021/05/09 04:13:20;;;;;;;3.57;2.30;;;12.50;83.10;;;;;;5056327;28;20067;-89
2021/05/09 04:15:46;;;;;;;4.97;2.13;;;12.60;82.70;;;;;;5039245;28;20021;-92
2021/05/09 04:18:12;;;;;;;3.67;2.00;;;12.70;82.90;;;;;;5038198;28;20055;-90
2021/05/09 04:20:38;;;;;;;3.63;1.90;;;12.90;81.90;;;;;;5038466;28;20075;-86
2021/05/09 04:23:14;;;;;;;3.77;2.00;;;13.20;81.20;;;;;;5021405;28;20509;-89
2021/05/09 04:25:41;;;;;;;3.53;1.60;;;13.80;79.40;;;;;;5040140;28;20494;-89
2021/05/09 04:28:08;;;;;;;3.83;1.77;;;13.90;78.30;;;;;;5021639;28;20082;-91
2021/05/09 04:30:35;;;;;;;4.33;1.60;;;13.70;78.30;;;;;;5013201;28;20079;-88
2021/05/09 04:33:02;;;;;;;2.20;1.30;;;13.60;78.60;;;;;;5002306;28;20032;-91
2021/05/09 04:35:28;;;;;;;3.67;1.80;;;13.50;79.00;;;;;;5018760;28;20026;-91
2021/05/09 04:37:54;;;;;;;4.07;1.90;;;13.40;79.10;;;;;;5001765;28;20030;-90
2021/05/09 04:40:20;;;;;;;2.93;1.70;;;13.90;78.50;;;;;;5020556;28;20124;-92
2021/05/09 04:42:46;;;;;;;2.37;1.60;;;14.20;77.00;;;;;;5018262;28;20067;-89
2021/05/09 04:45:13;;;;;;;1.92;1.23;;;14.00;76.70;;;;;;5018041;28;20068;-88
2021/05/09 04:47:38;;;;;;;5.70;2.00;;;13.80;77.10;;;;;;5037232;28;20025;-90
2021/05/09 04:50:05;;;;;;;4.78;1.60;;;13.60;77.70;;;;;;5037555;28;20035;-88
2021/05/09 04:52:31;;;;;;;3.60;1.58;;;13.50;78.00;;;;;;5037705;28;20029;-88
2021/05/09 04:54:56;;;;;;;4.20;1.60;;;13.50;78.10;;;;;;5038409;28;20086;-88
2021/05/09 04:57:22;;;;;;;5.10;1.80;;;13.40;78.40;;;;;;5005083;28;20025;-91
2021/05/09 04:59:48;;;;;;;2.67;1.58;;;13.30;78.40;;;;;;5031893;28;20484;-88
2021/05/09 05:02:13;;;;;;;3.73;1.70;;;13.20;78.50;;;;;;5034334;28;20057;-89
2021/05/09 05:04:39;;;;;;;3.05;1.35;;;13.20;78.60;;;;;;5017941;28;20476;-89
2021/05/09 05:07:05;;;;;;;3.30;1.43;;;13.20;78.60;;;;;;5034087;28;20026;-89
2021/05/09 05:09:30;;;;;;;2.83;1.70;;;13.20;78.50;;;;;;5034159;28;20101;-93
2021/05/09 05:11:56;;;;;;;2.67;1.20;;;13.50;77.90;;;;;;5032767;28;20028;-93
2021/05/09 05:14:27;;;;;;;2.22;1.20;;;13.90;76.90;;;;;;5017466;28;20040;-92
2021/05/09 05:16:53;;;;;;;2.40;1.20;;;14.60;75.20;;;;;;5035210;28;20399;-89
2021/05/09 05:19:19;;;;;;;3.15;1.30;;;15.50;73.00;;;;;;5017792;28;20025;-93
2021/05/09 05:21:44;;;;;;;2.67;0.93;;;16.60;69.10;;;;;;5033674;28;20112;-94
2021/05/09 05:24:10;;;;;;;4.75;1.10;;;17.70;66.50;;;;;;5033747;28;20085;-92
2021/05/09 05:26:36;;;;;;;2.28;0.88;;;18.90;62.80;;;;;;5035028;28;20096;-94
2021/05/09 05:29:02;;;;;;;2.20;0.70;;;19.70;60.00;;;;;;4998698;28;20049;-89
2021/05/09 05:31:27;;;;;;;5.07;0.90;;;20.40;57.60;;;;;;4998333;28;20083;-91
2021/05/09 05:33:53;;;;;;;1.73;0.70;;;20.90;54.90;;;;;;5014432;28;20460;-92
2021/05/09 05:36:19;;;;;;;1.92;0.60;;;21.70;52.60;;;;;;5013515;28;20037;-94
2021/05/09 05:38:45;;;;;;;1.92;0.63;;;22.20;51.00;;;;;;4997657;28;20030;-89
2021/05/09 05:41:11;;;;;;;2.13;0.85;;;22.70;49.00;;;;;;5014322;28;20196;-85
2021/05/09 05:43:36;;;;;;;2.10;0.70;;;22.80;48.10;;;;;;4996955;28;20161;-89
2021/05/09 05:46:03;;;;;;;2.28;0.70;;;22.90;47.90;;;;;;5012724;28;20038;-89
2021/05/09 05:48:29;;;;;;;3.83;0.70;;;23.10;47.10;;;;;;5016157;28;20109;-90
2021/05/09 05:50:57;;;;;;;2.95;0.75;;;22.90;46.80;;;;;;5016085;28;20026;-91
2021/05/09 05:53:24;;;;;;;2.30;0.70;;;22.70;47.50;;;;;;5013211;28;20037;-90
2021/05/09 05:55:50;;;;;;;2.35;0.70;;;22.60;47.20;;;;;;5015422;28;20096;-87
2021/05/09 05:58:17;;;;;;;1.52;0.60;;;22.60;47.70;;;;;;5014439;28;20188;-88
2021/05/09 06:00:44;;;;;;;2.58;0.55;;;22.50;47.20;;;;;;5033143;28;20500;-88
2021/05/09 06:03:10;;;;;;;3.22;0.60;;;22.40;47.30;;;;;;5016270;28;20510;-89
2021/05/09 06:05:35;;;;;;;2.70;0.70;;;22.50;46.80;;;;;;5017211;28;20065;-87
2021/05/09 06:08:01;;;;;;;1.85;0.60;;;22.40;46.80;;;;;;4999631;28;20030;-87
2021/05/09 06:10:27;;;;;;;2.47;0.70;;;22.00;47.40;;;;;;5026427;28;20025;-85
2021/05/09 06:12:56;;;;;;;3.35;0.60;;;22.20;47.40;;;;;;5014676;28;20032;-89
2021/05/09 06:15:22;;;;;;;3.35;0.70;;;22.20;47.40;;;;;;5014516;28;20025;-87
2021/05/09 06:17:48;;;;;;;2.78;0.50;;;22.80;46.20;;;;;;5032463;28;20196;-86
2021/05/09 06:20:14;;;;;;;3.55;0.65;;;23.00;45.40;;;;;;4997336;28;20471;-88
2021/05/09 06:22:40;;;;;;;2.47;0.60;;;22.50;46.30;;;;;;5014947;28;20036;-87
2021/05/09 06:25:06;;;;;;;2.10;0.57;;;21.90;47.50;;;;;;4998239;28;20045;-87
2021/05/09 06:27:32;;;;;;;1.77;0.60;;;21.90;48.10;;;;;;4998539;28;20029;-86
2021/05/09 06:29:58;;;;;;;3.53;0.50;;;22.40;47.10;;;;;;4999067;28;20032;-87
2021/05/09 06:32:24;;;;;;;1.27;0.60;;;22.40;47.00;;;;;;5023674;28;20160;-89
2021/05/09 06:34:50;;;;;;;1.13;0.52;;;22.90;46.60;;;;;;5004188;28;20041;-89
2021/05/09 06:37:16;;;;;;;3.85;0.60;;;23.70;45.30;;;;;;5049646;28;20037;-89
2021/05/09 06:39:41;;;;;;;2.67;0.52;;;24.10;44.00;;;;;;5035604;28;20052;-88
2021/05/09 06:42:07;;;;;;;4.55;0.60;;;24.30;43.80;;;;;;5041881;28;20089;-87
2021/05/09 06:44:41;;;;;;;2.65;0.50;;;24.50;43.10;;;;;;5036714;28;20475;-85
2021/05/09 06:47:06;;;;;;;1.77;0.50;;;24.50;43.20;;;;;;5015951;28;20494;-88
2021/05/09 06:49:33;;;;;;;1.08;0.40;;;24.80;43.00;;;;;;4998736;28;20037;-85
2021/05/09 06:51:59;;;;;;;2.78;0.50;;;25.00;42.50;;;;;;4986466;28;20045;-86
2021/05/09 06:54:25;;;;;;;2.40;0.40;;;24.90;42.20;;;;;;5018636;28;20120;-85
2021/05/09 06:56:52;;;;;;;2.20;0.40;;;24.80;42.90;;;;;;4982659;28;20120;-85
2021/05/09 06:59:18;;;;;;;3.45;0.50;;;24.90;42.60;;;;;;4998375;28;20058;-85
2021/05/09 07:01:44;;;;;;;5.28;0.60;;;25.20;42.40;;;;;;5015072;28;20029;-87
2021/05/09 07:04:09;;;;;;;2.53;0.50;;;25.60;41.10;;;;;;4982876;28;20364;-87
2021/05/09 07:06:35;;;;;;;3.38;0.60;;;25.40;41.20;;;;;;5040173;28;20033;-87
2021/05/09 07:09:05;;;;;;;1.17;0.40;;;25.00;41.80;;;;;;5002564;28;20025;-84
2021/05/09 07:11:34;;;;;;;2.13;0.50;;;25.10;42.10;;;;;;5034383;28;20594;-86
2021/05/09 07:14:00;;;;;;;2.63;0.50;;;25.40;42.20;;;;;;5017861;28;20026;-86
2021/05/09 07:16:26;;;;;;;1.88;0.50;;;25.20;42.60;;;;;;5019474;28;20213;-83
2021/05/09 07:18:52;;;;;;;2.03;0.50;;;25.20;42.30;;;;;;5022136;28;20033;-82
2021/05/09 07:21:24;;;;;;;2.83;0.60;;;25.20;42.80;;;;;;5025302;28;20029;-82
2021/05/09 07:23:50;;;;;;;3.00;0.80;;;25.30;42.60;;;;;;5030579;28;20109;-84
2021/05/09 07:26:16;;;;;;;5.55;0.55;;;25.30;42.40;;;;;;5006972;28;20414;-83
2021/05/09 07:28:42;;;;;;;3.35;0.50;;;25.10;42.20;;;;;;5021475;28;20028;-82
2021/05/09 07:31:08;;;;;;;2.25;0.60;;;24.90;43.10;;;;;;5000102;28;20368;-84
2021/05/09 07:33:33;;;;;;;4.85;0.60;;;24.80;43.10;;;;;;5001057;28;20029;-82
2021/05/09 07:36:00;;;;;;;3.92;0.50;;;24.60;43.80;;;;;;5024883;28;20029;-84
2021/05/09 07:38:59;;;;;;;6.85;1.00;;;24.30;44.50;;;;;;5053263;28;20357;-82
2021/05/09 07:41:25;;;;;;;3.08;0.60;;;23.30;47.00;;;;;;5051306;28;20114;-82
2021/05/09 07:43:51;;;;;;;5.03;1.05;;;22.80;48.90;;;;;;5030948;28;20032;-81
2021/05/09 07:46:16;;;;;;;3.75;1.08;;;22.90;49.50;;;;;;5032711;28;20036;-85
2021/05/09 07:48:42;;;;;;;4.40;1.00;;;23.00;49.70;;;;;;5035719;28;20713;-87
2021/05/09 07:51:07;;;;;;;1.95;0.70;;;23.20;49.40;;;;;;5035587;28;20120;-85
2021/05/09 07:53:33;;;;;;;6.13;0.75;;;23.50;48.30;;;;;;5036286;28;20049;-84
2021/05/09 07:55:59;;;;;;;3.92;0.50;;;23.50;48.40;;;;;;5051792;28;20025;-85
2021/05/09 07:58:25;;;;;;;3.17;0.80;;;23.20;49.60;;;;;;5048960;28;20468;-85
2021/05/09 08:00:51;;;;;;;6.10;0.50;;;22.90;50.20;;;;;;5050110;28;20037;-86
2021/05/09 08:03:16;;;;;;;3.83;0.77;;;22.50;51.30;;;;;;5049462;28;21465;-84
2021/05/09 08:05:43;;;;;;;7.35;0.70;;;22.40;52.40;;;;;;5048924;28;21537;-84
2021/05/09 08:08:09;;;;;;;5.03;0.85;;;22.40;52.50;;;;;;5050415;28;20127;-82
2021/05/09 08:10:38;;;;;;;2.78;0.73;;;22.20;52.60;;;;;;5053005;28;20520;-81
2021/05/09 08:13:05;;;;;;;4.93;0.88;;;22.50;53.10;;;;;;5045183;28;20488;-81
2021/05/09 08:15:31;;;;;;;2.70;0.90;;;23.20;51.50;;;;;;5064441;28;20031;-82
2021/05/09 08:17:57;;;;;;;3.53;0.68;;;23.80;49.90;;;;;;5045759;28;20033;-88
2021/05/09 08:20:24;;;;;;;3.70;0.73;;;24.20;48.90;;;;;;5047874;28;20043;-85
2021/05/09 08:22:50;;;;;;;4.10;0.85;;;24.40;48.40;;;;;;5061590;28;20039;-80
2021/05/09 08:25:16;;;;;;;1.65;0.60;;;24.50;47.60;;;;;;5064667;28;20017;-82
2021/05/09 08:27:43;;;;;;;2.30;0.80;;;24.50;47.80;;;;;;5050049;28;20045;-82
2021/05/09 08:30:09;;;;;;;4.70;0.60;;;24.70;47.70;;;;;;5048606;28;20461;-82
2021/05/09 08:32:35;;;;;;;1.60;0.70;;;24.70;47.70;;;;;;5031447;28;20014;-85
2021/05/09 08:35:03;;;;;;;3.10;0.80;;;24.60;47.60;;;;;;5056759;28;20033;-82
2021/05/09 08:37:28;;;;;;;2.88;0.70;;;24.40;48.20;;;;;;5048726;28;20049;-85
2021/05/09 08:39:54;;;;;;;2.17;0.65;;;24.10;49.10;;;;;;5051956;28;20033;-85
2021/05/09 08:42:20;;;;;;;2.70;0.68;;;23.80;49.80;;;;;;5038941;28;20029;-88
2021/05/09 08:44:47;;;;;;;3.33;0.80;;;23.60;50.80;;;;;;5043411;28;20061;-84
2021/05/09 08:47:15;;;;;;;4.78;0.70;;;23.80;50.80;;;;;;5060874;28;20032;-83
2021/05/09 08:49:41;;;;;;;2.85;0.70;;;24.40;50.10;;;;;;5051439;28;20036;-84
2021/05/09 08:52:08;;;;;;;2.88;0.60;;;24.70;49.10;;;;;;5014284;28;20033;-83
2021/05/09 08:54:34;;;;;;;1.90;0.70;;;25.10;48.70;;;;;;5045985;28;20026;-83
2021/05/09 08:57:03;;;;;;;4.45;0.50;;;25.30;47.50;;;;;;5044513;28;20038;-82
2021/05/09 08:59:28;;;;;;;4.07;0.60;;;25.60;47.50;;;;;;5045154;28;20029;-82
2021/05/09 09:01:56;;;;;;;3.47;0.60;;;26.00;46.80;;;;;;5044876;28;20045;-85
2021/05/09 09:04:22;;;;;;;1.35;0.60;;;26.00;45.90;;;;;;5028597;28;20058;-86
2021/05/09 09:06:47;;;;;;;3.13;0.50;;;25.50;46.80;;;;;;5046012;28;20025;-86
2021/05/09 09:09:20;;;;;;;2.35;0.52;;;25.20;48.00;;;;;;5047167;28;20033;-84
2021/05/09 09:11:54;;;;;;;3.47;0.60;;;25.50;48.20;;;;;;5041507;28;20017;-85
2021/05/09 09:14:29;;;;;;;1.70;0.60;;;25.60;47.50;;;;;;5043509;28;20033;-83
2021/05/09 09:17:11;;;;;;;4.45;0.55;;;25.80;47.20;;;;;;5027253;28;20040;-83
2021/05/09 09:19:55;;;;;;;1.33;0.50;;;26.50;46.80;;;;;;5043135;28;20064;-85
2021/05/09 09:22:21;;;;;;;2.58;0.50;;;27.30;45.40;;;;;;5025721;28;20144;-83
2021/05/09 09:25:04;;;;;;;2.95;0.50;;;27.50;44.90;;;;;;5036797;28;20254;-82
2021/05/09 09:27:30;;;;;;;1.85;0.60;;;27.50;44.50;;;;;;5038052;28;20080;-87
2021/05/09 09:30:03;;;;;;;1.35;0.60;;;27.10;44.70;;;;;;5038658;28;20473;-86
2021/05/09 09:32:29;;;;;;;1.70;0.70;;;26.60;45.50;;;;;;5039745;28;20041;-88
2021/05/09 09:34:55;;;;;;;2.97;0.68;;;26.20;46.10;;;;;;5019647;28;20033;-89
2021/05/09 09:37:21;;;;;;;3.30;0.60;;;26.30;47.10;;;;;;5038445;28;20061;-88
2021/05/09 09:39:53;;;;;;;2.90;0.65;;;26.80;46.50;;;;;;5038324;28;20044;-86
2021/05/09 09:42:37;;;;;;;4.57;0.63;;;27.10;45.20;;;;;;5015495;28;20034;-85
2021/05/09 09:45:20;;;;;;;1.42;0.50;;;27.10;45.70;;;;;;5015118;28;20041;-84
2021/05/09 09:47:55;;;;;;;2.88;0.57;;;27.30;45.80;;;;;;5019066;28;20103;-88
2021/05/09 09:50:41;;;;;;;3.22;0.65;;;27.10;45.40;;;;;;5034586;28;20018;-88
2021/05/09 09:53:29;;;;;;;1.73;0.60;;;26.70;46.10;;;;;;5017640;28;20025;-86
2021/05/09 09:56:07;;;;;;;1.90;0.60;;;26.80;46.50;;;;;;5015377;28;20021;-84
2021/05/09 09:58:52;;;;;;;3.65;0.60;;;26.90;46.10;;;;;;5034388;28;20030;-88
2021/05/09 10:01:20;;;;;;;1.80;0.57;;;27.00;45.70;;;;;;5033493;28;20466;-84
2021/05/09 10:03:47;;;;;;;1.85;0.60;;;26.90;45.80;;;;;;5019230;28;20049;-90
2021/05/09 10:06:14;;;;;;;2.03;0.50;;;26.90;46.30;;;;;;5018697;28;20030;-86
2021/05/09 10:08:40;;;;;;;3.30;0.60;;;27.30;46.40;;;;;;5024015;28;20022;-87
2021/05/09 10:11:07;;;;;;;4.28;0.50;;;27.70;44.60;;;;;;5032007;28;20026;-84
2021/05/09 10:13:33;;;;;;;4.78;0.52;;;27.70;44.50;;;;;;5024819;28;20030;-87
2021/05/09 10:16:00;;;;;;;2.90;0.60;;;27.50;44.10;;;;;;5036489;28;20033;-86
2021/05/09 10:18:27;;;;;;;2.25;0.57;;;27.50;45.10;;;;;;5018418;28;20389;-85
2021/05/09 10:20:53;;;;;;;3.10;0.60;;;27.80;44.30;;;;;;5018449;28;20034;-85
2021/05/09 10:23:19;;;;;;;1.55;0.60;;;28.00;44.00;;;;;;5037005;28;20030;-87
2021/05/09 10:25:51;;;;;;;2.05;0.70;;;28.10;43.80;;;;;;5018887;28;20044;-88
2021/05/09 10:28:23;;;;;;;1.17;0.50;;;28.20;43.70;;;;;;5017467;28;20053;-84
2021/05/09 10:30:57;;;;;;;2.13;0.52;;;28.10;44.20;;;;;;5017299;28;20034;-88
2021/05/09 10:33:38;;;;;;;3.72;0.60;;;28.00;43.40;;;;;;5019079;28;20026;-85
2021/05/09 10:36:06;;;;;;;2.25;0.52;;;27.90;44.90;;;;;;5033772;28;20065;-88
2021/05/09 10:39:08;;;;;;;2.22;0.50;;;28.00;44.70;;;;;;5016822;28;20053;-87
2021/05/09 10:41:35;;;;;;;1.35;0.50;;;28.20;44.70;;;;;;5033078;28;20484;-84
2021/05/09 10:44:00;;;;;;;0.90;0.47;;;28.70;43.90;;;;;;5041761;28;20033;-85
2021/05/09 10:47:03;;;;;;;1.95;0.60;;;28.90;43.30;;;;;;5055307;28;20026;-87
2021/05/09 10:49:28;;;;;;;1.30;0.50;;;28.60;42.80;;;;;;5060169;28;20029;-86
2021/05/09 10:51:54;;;;;;;2.92;0.60;;;28.70;44.20;;;;;;5064481;28;20032;-89
2021/05/09 10:54:22;;;;;;;5.53;0.70;;;28.90;43.00;;;;;;5066040;28;20025;-87
2021/05/09 10:56:49;;;;;;;1.85;0.60;;;29.10;43.80;;;;;;5066038;28;20021;-88
2021/05/09 10:59:15;;;;;;;4.53;0.60;;;29.40;42.40;;;;;;5069991;28;20043;-87
2021/05/09 11:01:41;;;;;;;1.27;0.50;;;29.50;41.40;;;;;;5059265;28;20037;-90
2021/05/09 11:04:11;;;;;;;4.03;0.60;;;29.40;42.20;;;;;;5052651;28;20025;-87
2021/05/09 11:06:48;;;;;;;3.28;0.60;;;29.70;42.10;;;;;;5054170;28;20014;-87
2021/05/09 11:09:15;;;;;;;1.00;0.50;;;30.00;41.40;;;;;;5033229;28;20030;-86
2021/05/09 11:11:41;;;;;;;1.58;0.60;;;29.90;40.80;;;;;;5050929;28;20022;-86
2021/05/09 11:14:13;;;;;;;2.20;0.50;;;29.90;40.90;;;;;;5050328;28;20029;-86
2021/05/09 11:16:39;;;;;;;2.08;0.50;;;29.80;40.50;;;;;;5051162;28;20014;-87
2021/05/09 11:19:07;;;;;;;1.05;0.50;;;29.50;41.80;;;;;;5048410;28;20029;-89
2021/05/09 11:21:35;;;;;;;4.75;0.50;;;29.50;41.00;;;;;;5047035;28;20029;-87
2021/05/09 11:24:04;;;;;;;2.65;0.50;;;29.40;41.60;;;;;;5045441;28;20381;-86
2021/05/09 11:26:41;;;;;;;1.42;0.50;;;29.40;42.00;;;;;;5044186;28;20013;-86
2021/05/09 11:29:11;;;;;;;2.72;0.40;;;29.70;41.80;;;;;;5034936;28;20036;-89
2021/05/09 11:31:58;;;;;;;1.88;0.60;;;30.30;41.60;;;;;;5037379;28;20087;-89
2021/05/09 11:34:26;;;;;;;1.98;0.50;;;30.70;41.00;;;;;;5035459;28;20030;-90
2021/05/09 11:36:54;;;;;;;1.35;0.50;;;31.20;39.90;;;;;;5034977;28;20032;-89
2021/05/09 11:39:34;;;;;;;2.15;0.50;;;31.60;38.80;;;;;;5038104;28;20056;-90
2021/05/09 11:42:05;;;;;;;2.20;0.60;;;31.00;37.80;;;;;;5035179;28;20021;-90
2021/05/09 11:44:35;;;;;;;1.95;0.50;;;30.50;38.70;;;;;;5039251;28;20052;-90
2021/05/09 11:47:05;;;;;;;1.77;0.47;;;30.00;39.50;;;;;;5036181;28;20085;-90
2021/05/09 11:49:31;;;;;;;1.38;0.50;;;29.80;39.80;;;;;;5036299;28;20045;-92
2021/05/09 11:52:18;;;;;;;4.40;0.50;;;29.90;39.60;;;;;;5033913;28;20022;-89
2021/05/09 11:54:45;;;;;;;1.27;0.50;;;30.00;38.70;;;;;;5037222;28;20378;-87
2021/05/09 11:57:12;;;;;;;3.53;0.50;;;30.00;39.10;;;;;;5038710;28;20030;-87
2021/05/09 11:59:43;;;;;;;2.85;0.60;;;30.20;38.40;;;;;;5036341;28;20014;-90
2021/05/09 12:02:21;;;;;;;2.38;0.52;;;30.30;37.90;;;;;;5033898;28;20037;-93
2021/05/09 12:04:57;;;;;;;2.03;0.52;;;30.50;37.80;;;;;;5032238;28;20082;-89
2021/05/09 12:07:25;;;;;;;2.15;0.40;;;30.30;37.60;;;;;;5026239;28;20095;-90
2021/05/09 12:09:57;;;;;;;4.18;0.60;;;30.30;39.20;;;;;;5029406;28;20060;-88
2021/05/09 12:12:26;;;;;;;2.22;0.50;;;30.80;37.80;;;;;;5032565;28;20385;-89
2021/05/09 12:14:53;;;;;;;4.18;0.65;;;31.00;37.20;;;;;;5029515;28;20034;-87
2021/05/09 12:17:21;;;;;;;3.53;0.47;;;31.10;37.00;;;;;;5018812;28;20139;-94
2021/05/09 12:19:47;;;;;;;4.25;0.55;;;31.20;37.40;;;;;;5035688;28;20018;-86
2021/05/09 12:22:13;;;;;;;3.85;0.50;;;31.60;36.50;;;;;;5036085;28;20025;-90
2021/05/09 12:24:49;;;;;;;2.92;0.50;;;31.70;37.00;;;;;;5003548;28;20024;-85
2021/05/09 12:27:15;;;;;;;2.97;0.60;;;31.80;36.70;;;;;;5036743;28;20029;-87
2021/05/09 12:29:56;;;;;;;2.83;0.50;;;31.60;37.40;;;;;;5020641;28;20025;-89
2021/05/09 12:32:24;;;;;;;1.48;0.50;;;31.70;37.10;;;;;;5036541;28;20060;-90
2021/05/09 12:35:09;;;;;;;5.13;0.50;;;31.80;36.90;;;;;;5034492;28;20036;-84
2021/05/09 12:37:55;;;;;;;2.45;0.40;;;31.70;37.00;;;;;;5034625;28;20033;-91
2021/05/09 12:40:29;;;;;;;4.93;0.57;;;31.40;37.10;;;;;;5035453;28;20033;-91
2021/05/09 12:43:11;;;;;;;4.03;0.50;;;31.30;37.20;;;;;;5040118;28;20037;-85
2021/05/09 12:45:41;;;;;;;7.53;0.60;;;31.10;37.40;;;;;;5036831;28;20053;-91
2021/05/09 12:48:11;;;;;;;3.33;0.50;;;31.10;37.30;;;;;;5038851;28;20132;-87
2021/05/09 12:50:44;;;;;;;1.20;0.40;;;31.10;37.30;;;;;;5038747;28;20097;-87